sensor_id;sensor_type;location;lat;lon;timestamp;P1;durP1;ratioP1;P2;durP2;ratioP2
34872;SDS011;21084;51.098;14.506;2022-08-01T00:00:06;10.57;;;8.40;;
34872;SDS011;21084;51.098;14.506;2022-08-01T00:02:14;9.65;;;8.07;;
34872;SDS011;21084;51.098;14.506;2022-08-01T00:04:17;10.02;;;8.70;;
34872;SDS011;21084;51.098;14.506;2022-08-01T00:06:20;10.70;;;8.63;;
34872;SDS011;21084;51.098;14.506;2022-08-01T00:08:23;9.13;;;7.88;;
34872;SDS011;21084;51.098;14.506;2022-08-01T00:10:27;11.95;;;8.07;;
34872;SDS011;21084;51.098;14.506;2022-08-01T00:12:30;13.48;;;8.43;;
34872;SDS011;21084;51.098;14.506;2022-08-01T00:14:33;11.07;;;7.78;;
34872;SDS011;21084;51.098;14.506;2022-08-01T00:16:36;8.90;;;7.95;;
34872;SDS011;21084;51.098;14.506;2022-08-01T00:18:42;9.02;;;7.88;;
34872;SDS011;21084;51.098;14.506;2022-08-01T00:20:45;10.43;;;8.13;;
34872;SDS011;21084;51.098;14.506;2022-08-01T00:22:48;8.85;;;8.02;;
34872;SDS011;21084;51.098;14.506;2022-08-01T00:24:52;10.07;;;7.60;;
34872;SDS011;21084;51.098;14.506;2022-08-01T00:26:55;9.27;;;8.27;;
34872;SDS011;21084;51.098;14.506;2022-08-01T00:28:58;8.05;;;7.35;;
34872;SDS011;21084;51.098;14.506;2022-08-01T00:31:01;9.95;;;7.43;;
34872;SDS011;21084;51.098;14.506;2022-08-01T00:33:04;8.63;;;7.45;;
34872;SDS011;21084;51.098;14.506;2022-08-01T00:35:10;15.23;;;7.43;;
34872;SDS011;21084;51.098;14.506;2022-08-01T00:37:14;8.93;;;7.15;;
34872;SDS011;21084;51.098;14.506;2022-08-01T00:39:17;7.78;;;7.05;;
34872;SDS011;21084;51.098;14.506;2022-08-01T00:41:20;7.80;;;6.50;;
34872;SDS011;21084;51.098;14.506;2022-08-01T00:43:23;9.57;;;6.28;;
34872;SDS011;21084;51.098;14.506;2022-08-01T00:45:27;6.50;;;5.90;;
34872;SDS011;21084;51.098;14.506;2022-08-01T00:47:30;8.07;;;6.13;;
34872;SDS011;21084;51.098;14.506;2022-08-01T00:49:33;7.50;;;5.38;;
34872;SDS011;21084;51.098;14.506;2022-08-01T00:51:39;6.60;;;5.97;;
34872;SDS011;21084;51.098;14.506;2022-08-01T00:53:43;11.35;;;6.30;;
34872;SDS011;21084;51.098;14.506;2022-08-01T00:55:53;8.70;;;6.50;;
34872;SDS011;21084;51.098;14.506;2022-08-01T00:57:57;6.35;;;5.75;;
34872;SDS011;21084;51.098;14.506;2022-08-01T01:00:04;7.40;;;5.72;;
34872;SDS011;21084;51.098;14.506;2022-08-01T01:02:07;8.43;;;6.05;;
34872;SDS011;21084;51.098;14.506;2022-08-01T01:04:17;6.97;;;5.70;;
34872;SDS011;21084;51.098;14.506;2022-08-01T01:06:27;6.68;;;5.97;;
34872;SDS011;21084;51.098;14.506;2022-08-01T01:08:38;7.22;;;6.18;;
34872;SDS011;21084;51.098;14.506;2022-08-01T01:12:46;9.00;;;5.60;;
34872;SDS011;21084;51.098;14.506;2022-08-01T01:14:53;9.68;;;5.93;;
34872;SDS011;21084;51.098;14.506;2022-08-01T01:16:57;8.18;;;5.80;;
34872;SDS011;21084;51.098;14.506;2022-08-01T01:19:01;7.63;;;5.50;;
34872;SDS011;21084;51.098;14.506;2022-08-01T01:21:07;7.15;;;5.70;;
34872;SDS011;21084;51.098;14.506;2022-08-01T01:23:21;8.05;;;5.93;;
34872;SDS011;21084;51.098;14.506;2022-08-01T01:25:33;8.82;;;6.43;;
34872;SDS011;21084;51.098;14.506;2022-08-01T01:27:45;7.25;;;5.95;;
34872;SDS011;21084;51.098;14.506;2022-08-01T01:29:52;6.82;;;6.13;;
34872;SDS011;21084;51.098;14.506;2022-08-01T01:32:03;6.65;;;6.00;;
34872;SDS011;21084;51.098;14.506;2022-08-01T01:34:07;7.80;;;6.15;;
34872;SDS011;21084;51.098;14.506;2022-08-01T01:36:18;7.57;;;6.47;;
34872;SDS011;21084;51.098;14.506;2022-08-01T01:38:22;6.82;;;6.00;;
34872;SDS011;21084;51.098;14.506;2022-08-01T01:40:26;7.28;;;6.53;;
34872;SDS011;21084;51.098;14.506;2022-08-01T01:42:30;8.57;;;6.13;;
34872;SDS011;21084;51.098;14.506;2022-08-01T01:44:34;8.00;;;5.57;;
34872;SDS011;21084;51.098;14.506;2022-08-01T01:46:41;6.57;;;5.97;;
34872;SDS011;21084;51.098;14.506;2022-08-01T01:48:44;8.48;;;6.20;;
34872;SDS011;21084;51.098;14.506;2022-08-01T01:50:49;8.30;;;6.30;;
34872;SDS011;21084;51.098;14.506;2022-08-01T01:52:52;8.18;;;5.85;;
34872;SDS011;21084;51.098;14.506;2022-08-01T01:54:56;7.28;;;5.55;;
34872;SDS011;21084;51.098;14.506;2022-08-01T01:57:00;7.55;;;6.75;;
34872;SDS011;21084;51.098;14.506;2022-08-01T01:59:04;9.23;;;6.93;;
34872;SDS011;21084;51.098;14.506;2022-08-01T02:01:07;7.32;;;6.28;;
34872;SDS011;21084;51.098;14.506;2022-08-01T02:03:18;7.90;;;6.28;;
34872;SDS011;21084;51.098;14.506;2022-08-01T02:05:22;8.93;;;6.38;;
34872;SDS011;21084;51.098;14.506;2022-08-01T02:07:26;10.98;;;6.90;;
34872;SDS011;21084;51.098;14.506;2022-08-01T02:09:30;7.60;;;6.80;;
34872;SDS011;21084;51.098;14.506;2022-08-01T02:11:34;7.88;;;7.07;;
34872;SDS011;21084;51.098;14.506;2022-08-01T02:13:59;7.40;;;6.70;;
34872;SDS011;21084;51.098;14.506;2022-08-01T02:16:03;8.85;;;7.00;;
34872;SDS011;21084;51.098;14.506;2022-08-01T02:18:07;9.32;;;6.88;;
34872;SDS011;21084;51.098;14.506;2022-08-01T02:20:14;8.40;;;7.18;;
34872;SDS011;21084;51.098;14.506;2022-08-01T02:22:18;8.48;;;7.15;;
34872;SDS011;21084;51.098;14.506;2022-08-01T02:24:24;8.50;;;7.32;;
34872;SDS011;21084;51.098;14.506;2022-08-01T02:26:31;8.18;;;6.90;;
34872;SDS011;21084;51.098;14.506;2022-08-01T02:28:36;8.20;;;6.82;;
34872;SDS011;21084;51.098;14.506;2022-08-01T02:30:41;7.60;;;6.70;;
34872;SDS011;21084;51.098;14.506;2022-08-01T02:32:47;11.57;;;7.07;;
34872;SDS011;21084;51.098;14.506;2022-08-01T02:34:51;9.73;;;6.93;;
34872;SDS011;21084;51.098;14.506;2022-08-01T02:36:59;11.23;;;7.72;;
34872;SDS011;21084;51.098;14.506;2022-08-01T02:39:03;11.25;;;6.88;;
34872;SDS011;21084;51.098;14.506;2022-08-01T02:41:07;11.00;;;6.80;;
34872;SDS011;21084;51.098;14.506;2022-08-01T02:43:11;8.10;;;7.30;;
34872;SDS011;21084;51.098;14.506;2022-08-01T02:45:15;8.70;;;7.28;;
34872;SDS011;21084;51.098;14.506;2022-08-01T02:47:20;12.13;;;7.78;;
34872;SDS011;21084;51.098;14.506;2022-08-01T02:49:25;8.10;;;7.00;;
34872;SDS011;21084;51.098;14.506;2022-08-01T02:51:28;10.20;;;6.93;;
34872;SDS011;21084;51.098;14.506;2022-08-01T02:53:35;8.05;;;7.28;;
34872;SDS011;21084;51.098;14.506;2022-08-01T02:55:45;10.30;;;7.63;;
34872;SDS011;21084;51.098;14.506;2022-08-01T02:57:49;11.57;;;6.88;;
34872;SDS011;21084;51.098;14.506;2022-08-01T03:00:02;8.48;;;7.53;;
34872;SDS011;21084;51.098;14.506;2022-08-01T03:02:05;8.80;;;7.90;;
34872;SDS011;21084;51.098;14.506;2022-08-01T03:04:10;10.40;;;7.63;;
34872;SDS011;21084;51.098;14.506;2022-08-01T03:06:14;9.88;;;7.68;;
34872;SDS011;21084;51.098;14.506;2022-08-01T03:08:18;12.65;;;7.95;;
34872;SDS011;21084;51.098;14.506;2022-08-01T03:10:24;8.90;;;8.00;;
34872;SDS011;21084;51.098;14.506;2022-08-01T03:12:29;13.35;;;8.73;;
34872;SDS011;21084;51.098;14.506;2022-08-01T03:14:35;9.32;;;8.43;;
34872;SDS011;21084;51.098;14.506;2022-08-01T03:16:41;12.07;;;7.55;;
34872;SDS011;21084;51.098;14.506;2022-08-01T03:18:45;9.52;;;8.00;;
34872;SDS011;21084;51.098;14.506;2022-08-01T03:20:49;9.30;;;8.10;;
34872;SDS011;21084;51.098;14.506;2022-08-01T03:22:53;11.27;;;8.80;;
34872;SDS011;21084;51.098;14.506;2022-08-01T03:24:57;15.05;;;9.20;;
34872;SDS011;21084;51.098;14.506;2022-08-01T03:27:04;10.20;;;8.93;;
34872;SDS011;21084;51.098;14.506;2022-08-01T03:29:10;9.48;;;8.48;;
34872;SDS011;21084;51.098;14.506;2022-08-01T03:31:15;11.75;;;8.25;;
34872;SDS011;21084;51.098;14.506;2022-08-01T03:33:19;9.52;;;8.38;;
34872;SDS011;21084;51.098;14.506;2022-08-01T03:35:23;9.50;;;8.60;;
34872;SDS011;21084;51.098;14.506;2022-08-01T03:37:30;9.98;;;8.98;;
34872;SDS011;21084;51.098;14.506;2022-08-01T03:39:37;9.77;;;8.40;;
34872;SDS011;21084;51.098;14.506;2022-08-01T03:41:43;10.98;;;8.48;;
34872;SDS011;21084;51.098;14.506;2022-08-01T03:43:51;11.05;;;8.32;;
34872;SDS011;21084;51.098;14.506;2022-08-01T03:46:01;10.95;;;8.02;;
34872;SDS011;21084;51.098;14.506;2022-08-01T03:48:06;11.38;;;8.73;;
34872;SDS011;21084;51.098;14.506;2022-08-01T03:50:11;10.57;;;8.52;;
34872;SDS011;21084;51.098;14.506;2022-08-01T03:52:15;11.80;;;8.02;;
34872;SDS011;21084;51.098;14.506;2022-08-01T03:54:20;9.02;;;8.10;;
34872;SDS011;21084;51.098;14.506;2022-08-01T03:56:24;10.88;;;8.65;;
34872;SDS011;21084;51.098;14.506;2022-08-01T03:58:28;9.88;;;8.23;;
34872;SDS011;21084;51.098;14.506;2022-08-01T04:00:34;10.30;;;8.32;;
34872;SDS011;21084;51.098;14.506;2022-08-01T04:02:38;9.48;;;7.38;;
34872;SDS011;21084;51.098;14.506;2022-08-01T04:04:41;8.65;;;7.75;;
34872;SDS011;21084;51.098;14.506;2022-08-01T04:06:45;10.40;;;8.07;;
34872;SDS011;21084;51.098;14.506;2022-08-01T04:08:48;9.88;;;8.48;;
34872;SDS011;21084;51.098;14.506;2022-08-01T04:10:51;11.48;;;7.80;;
34872;SDS011;21084;51.098;14.506;2022-08-01T04:12:55;11.77;;;8.32;;
34872;SDS011;21084;51.098;14.506;2022-08-01T04:14:58;14.32;;;9.75;;
34872;SDS011;21084;51.098;14.506;2022-08-01T04:17:04;10.52;;;8.43;;
34872;SDS011;21084;51.098;14.506;2022-08-01T04:19:07;10.68;;;7.95;;
34872;SDS011;21084;51.098;14.506;2022-08-01T04:21:10;13.82;;;8.32;;
34872;SDS011;21084;51.098;14.506;2022-08-01T04:23:14;10.35;;;7.93;;
34872;SDS011;21084;51.098;14.506;2022-08-01T04:25:19;9.75;;;7.32;;
34872;SDS011;21084;51.098;14.506;2022-08-01T04:27:26;8.63;;;7.75;;
34872;SDS011;21084;51.098;14.506;2022-08-01T04:29:50;8.98;;;7.10;;
34872;SDS011;21084;51.098;14.506;2022-08-01T04:31:54;13.77;;;7.18;;
34872;SDS011;21084;51.098;14.506;2022-08-01T04:34:01;9.00;;;6.75;;
34872;SDS011;21084;51.098;14.506;2022-08-01T04:36:05;10.00;;;7.30;;
34872;SDS011;21084;51.098;14.506;2022-08-01T04:38:09;7.82;;;6.80;;
34872;SDS011;21084;51.098;14.506;2022-08-01T04:40:13;10.57;;;6.85;;
34872;SDS011;21084;51.098;14.506;2022-08-01T04:42:17;11.20;;;7.40;;
34872;SDS011;21084;51.098;14.506;2022-08-01T04:44:31;12.77;;;7.35;;
34872;SDS011;21084;51.098;14.506;2022-08-01T04:46:34;10.25;;;7.57;;
34872;SDS011;21084;51.098;14.506;2022-08-01T04:48:38;7.72;;;6.75;;
34872;SDS011;21084;51.098;14.506;2022-08-01T04:50:44;9.98;;;7.82;;
34872;SDS011;21084;51.098;14.506;2022-08-01T04:52:47;9.02;;;7.18;;
34872;SDS011;21084;51.098;14.506;2022-08-01T04:54:51;10.48;;;7.00;;
34872;SDS011;21084;51.098;14.506;2022-08-01T04:56:54;9.98;;;7.30;;
34872;SDS011;21084;51.098;14.506;2022-08-01T04:58:57;12.85;;;7.38;;
34872;SDS011;21084;51.098;14.506;2022-08-01T05:01:01;10.18;;;7.50;;
34872;SDS011;21084;51.098;14.506;2022-08-01T05:03:04;11.45;;;8.05;;
34872;SDS011;21084;51.098;14.506;2022-08-01T05:05:07;10.10;;;7.18;;
34872;SDS011;21084;51.098;14.506;2022-08-01T05:07:13;13.20;;;7.65;;
34872;SDS011;21084;51.098;14.506;2022-08-01T05:09:17;9.05;;;7.18;;
34872;SDS011;21084;51.098;14.506;2022-08-01T05:11:20;9.25;;;7.53;;
34872;SDS011;21084;51.098;14.506;2022-08-01T05:13:23;9.20;;;7.28;;
34872;SDS011;21084;51.098;14.506;2022-08-01T05:15:27;10.98;;;7.18;;
34872;SDS011;21084;51.098;14.506;2022-08-01T05:17:30;12.75;;;7.78;;
34872;SDS011;21084;51.098;14.506;2022-08-01T05:19:33;11.27;;;7.45;;
34872;SDS011;21084;51.098;14.506;2022-08-01T05:21:37;11.48;;;8.32;;
34872;SDS011;21084;51.098;14.506;2022-08-01T05:23:43;15.48;;;10.00;;
34872;SDS011;21084;51.098;14.506;2022-08-01T05:25:46;13.13;;;8.85;;
34872;SDS011;21084;51.098;14.506;2022-08-01T05:27:58;14.43;;;9.00;;
34872;SDS011;21084;51.098;14.506;2022-08-01T05:30:01;16.17;;;8.82;;
34872;SDS011;21084;51.098;14.506;2022-08-01T05:32:05;13.48;;;8.70;;
34872;SDS011;21084;51.098;14.506;2022-08-01T05:34:09;14.23;;;9.02;;
34872;SDS011;21084;51.098;14.506;2022-08-01T05:36:16;13.13;;;8.80;;
34872;SDS011;21084;51.098;14.506;2022-08-01T05:38:19;11.38;;;8.18;;
34872;SDS011;21084;51.098;14.506;2022-08-01T05:40:25;13.57;;;8.07;;
34872;SDS011;21084;51.098;14.506;2022-08-01T05:42:28;16.23;;;7.97;;
34872;SDS011;21084;51.098;14.506;2022-08-01T05:44:31;12.95;;;8.40;;
34872;SDS011;21084;51.098;14.506;2022-08-01T05:46:35;13.73;;;7.63;;
34872;SDS011;21084;51.098;14.506;2022-08-01T05:48:38;9.07;;;7.75;;
34872;SDS011;21084;51.098;14.506;2022-08-01T05:50:41;14.57;;;8.57;;
34872;SDS011;21084;51.098;14.506;2022-08-01T05:52:44;19.00;;;8.20;;
34872;SDS011;21084;51.098;14.506;2022-08-01T05:54:47;10.52;;;8.15;;
34872;SDS011;21084;51.098;14.506;2022-08-01T05:56:53;13.35;;;7.50;;
34872;SDS011;21084;51.098;14.506;2022-08-01T05:58:56;12.77;;;7.43;;
34872;SDS011;21084;51.098;14.506;2022-08-01T06:00:59;14.13;;;8.25;;
34872;SDS011;21084;51.098;14.506;2022-08-01T06:03:03;16.23;;;8.00;;
34872;SDS011;21084;51.098;14.506;2022-08-01T06:05:06;9.27;;;7.70;;
34872;SDS011;21084;51.098;14.506;2022-08-01T06:07:14;11.10;;;7.85;;
34872;SDS011;21084;51.098;14.506;2022-08-01T06:09:17;14.88;;;7.78;;
34872;SDS011;21084;51.098;14.506;2022-08-01T06:11:20;12.55;;;6.55;;
34872;SDS011;21084;51.098;14.506;2022-08-01T06:13:26;7.72;;;5.88;;
34872;SDS011;21084;51.098;14.506;2022-08-01T06:15:29;9.98;;;5.60;;
34872;SDS011;21084;51.098;14.506;2022-08-01T06:17:32;9.35;;;6.20;;
34872;SDS011;21084;51.098;14.506;2022-08-01T06:19:36;6.90;;;5.45;;
34872;SDS011;21084;51.098;14.506;2022-08-01T06:21:39;7.82;;;5.00;;
34872;SDS011;21084;51.098;14.506;2022-08-01T06:23:42;8.77;;;4.90;;
34872;SDS011;21084;51.098;14.506;2022-08-01T06:25:45;11.00;;;6.03;;
34872;SDS011;21084;51.098;14.506;2022-08-01T06:27:48;6.78;;;4.80;;
34872;SDS011;21084;51.098;14.506;2022-08-01T06:29:54;7.70;;;5.00;;
34872;SDS011;21084;51.098;14.506;2022-08-01T06:31:57;9.02;;;4.28;;
34872;SDS011;21084;51.098;14.506;2022-08-01T06:34:01;6.13;;;4.35;;
34872;SDS011;21084;51.098;14.506;2022-08-01T06:36:04;6.30;;;4.47;;
34872;SDS011;21084;51.098;14.506;2022-08-01T06:38:07;4.68;;;4.00;;
34872;SDS011;21084;51.098;14.506;2022-08-01T06:40:11;4.95;;;3.85;;
34872;SDS011;21084;51.098;14.506;2022-08-01T06:42:18;9.13;;;4.60;;
34872;SDS011;21084;51.098;14.506;2022-08-01T06:44:21;6.15;;;4.25;;
34872;SDS011;21084;51.098;14.506;2022-08-01T06:46:27;5.93;;;4.40;;
34872;SDS011;21084;51.098;14.506;2022-08-01T06:48:32;5.38;;;4.38;;
34872;SDS011;21084;51.098;14.506;2022-08-01T06:50:35;10.13;;;4.32;;
34872;SDS011;21084;51.098;14.506;2022-08-01T06:52:39;8.52;;;4.15;;
34872;SDS011;21084;51.098;14.506;2022-08-01T06:54:42;5.72;;;4.22;;
34872;SDS011;21084;51.098;14.506;2022-08-01T06:56:45;7.50;;;4.47;;
34872;SDS011;21084;51.098;14.506;2022-08-01T06:58:48;6.82;;;4.47;;
34872;SDS011;21084;51.098;14.506;2022-08-01T07:00:52;7.95;;;4.03;;
34872;SDS011;21084;51.098;14.506;2022-08-01T07:03:01;4.53;;;3.88;;
34872;SDS011;21084;51.098;14.506;2022-08-01T07:05:04;6.35;;;4.10;;
34872;SDS011;21084;51.098;14.506;2022-08-01T07:07:08;5.85;;;4.30;;
34872;SDS011;21084;51.098;14.506;2022-08-01T07:09:11;5.90;;;4.00;;
34872;SDS011;21084;51.098;14.506;2022-08-01T07:11:15;8.80;;;4.18;;
34872;SDS011;21084;51.098;14.506;2022-08-01T07:13:19;5.57;;;4.10;;
34872;SDS011;21084;51.098;14.506;2022-08-01T07:15:22;6.10;;;4.30;;
34872;SDS011;21084;51.098;14.506;2022-08-01T07:17:25;9.98;;;4.70;;
34872;SDS011;21084;51.098;14.506;2022-08-01T07:19:31;5.93;;;4.25;;
34872;SDS011;21084;51.098;14.506;2022-08-01T07:21:34;6.90;;;4.43;;
34872;SDS011;21084;51.098;14.506;2022-08-01T07:23:42;4.55;;;3.83;;
34872;SDS011;21084;51.098;14.506;2022-08-01T07:25:47;6.78;;;4.00;;
34872;SDS011;21084;51.098;14.506;2022-08-01T07:27:53;4.55;;;3.85;;
34872;SDS011;21084;51.098;14.506;2022-08-01T07:29:57;9.68;;;3.88;;
34872;SDS011;21084;51.098;14.506;2022-08-01T07:32:00;10.88;;;4.13;;
34872;SDS011;21084;51.098;14.506;2022-08-01T07:34:03;13.63;;;4.10;;
34872;SDS011;21084;51.098;14.506;2022-08-01T07:36:09;6.25;;;4.10;;
34872;SDS011;21084;51.098;14.506;2022-08-01T07:38:12;6.10;;;4.30;;
34872;SDS011;21084;51.098;14.506;2022-08-01T07:40:15;7.13;;;3.40;;
34872;SDS011;21084;51.098;14.506;2022-08-01T07:42:19;7.93;;;4.15;;
34872;SDS011;21084;51.098;14.506;2022-08-01T07:44:22;8.73;;;3.92;;
34872;SDS011;21084;51.098;14.506;2022-08-01T07:46:29;5.32;;;4.05;;
34872;SDS011;21084;51.098;14.506;2022-08-01T07:48:32;4.20;;;3.80;;
34872;SDS011;21084;51.098;14.506;2022-08-01T07:50:36;5.72;;;3.95;;
34872;SDS011;21084;51.098;14.506;2022-08-01T07:52:41;4.90;;;3.83;;
34872;SDS011;21084;51.098;14.506;2022-08-01T07:54:45;7.03;;;4.30;;
34872;SDS011;21084;51.098;14.506;2022-08-01T07:56:53;4.20;;;3.63;;
34872;SDS011;21084;51.098;14.506;2022-08-01T07:58:59;5.18;;;3.13;;
34872;SDS011;21084;51.098;14.506;2022-08-01T08:01:02;7.63;;;3.70;;
34872;SDS011;21084;51.098;14.506;2022-08-01T08:03:05;4.10;;;3.38;;
34872;SDS011;21084;51.098;14.506;2022-08-01T08:05:08;5.22;;;3.80;;
34872;SDS011;21084;51.098;14.506;2022-08-01T08:07:12;3.50;;;3.20;;
34872;SDS011;21084;51.098;14.506;2022-08-01T08:09:18;5.72;;;3.33;;
34872;SDS011;21084;51.098;14.506;2022-08-01T08:11:21;5.13;;;3.20;;
34872;SDS011;21084;51.098;14.506;2022-08-01T08:13:24;3.45;;;3.00;;
34872;SDS011;21084;51.098;14.506;2022-08-01T08:15:28;3.83;;;2.70;;
34872;SDS011;21084;51.098;14.506;2022-08-01T08:17:31;6.85;;;2.78;;
34872;SDS011;21084;51.098;14.506;2022-08-01T08:19:37;5.65;;;3.20;;
34872;SDS011;21084;51.098;14.506;2022-08-01T08:21:40;6.45;;;3.13;;
34872;SDS011;21084;51.098;14.506;2022-08-01T08:23:44;3.15;;;2.85;;
34872;SDS011;21084;51.098;14.506;2022-08-01T08:25:49;5.30;;;3.00;;
34872;SDS011;21084;51.098;14.506;2022-08-01T08:27:52;4.70;;;3.40;;
34872;SDS011;21084;51.098;14.506;2022-08-01T08:29:56;5.32;;;3.45;;
34872;SDS011;21084;51.098;14.506;2022-08-01T08:31:59;4.90;;;3.53;;
34872;SDS011;21084;51.098;14.506;2022-08-01T08:34:03;6.85;;;3.80;;
34872;SDS011;21084;51.098;14.506;2022-08-01T08:36:06;4.78;;;3.30;;
34872;SDS011;21084;51.098;14.506;2022-08-01T08:38:09;4.25;;;2.85;;
34872;SDS011;21084;51.098;14.506;2022-08-01T08:40:13;4.43;;;3.00;;
34872;SDS011;21084;51.098;14.506;2022-08-01T08:42:19;4.45;;;3.00;;
34872;SDS011;21084;51.098;14.506;2022-08-01T08:44:23;4.03;;;2.90;;
34872;SDS011;21084;51.098;14.506;2022-08-01T08:46:26;2.80;;;2.50;;
34872;SDS011;21084;51.098;14.506;2022-08-01T08:48:30;4.93;;;2.28;;
34872;SDS011;21084;51.098;14.506;2022-08-01T08:50:33;2.33;;;2.13;;
34872;SDS011;21084;51.098;14.506;2022-08-01T08:52:38;3.58;;;2.45;;
34872;SDS011;21084;51.098;14.506;2022-08-01T08:54:41;4.30;;;2.05;;
34872;SDS011;21084;51.098;14.506;2022-08-01T08:56:45;3.88;;;1.40;;
34872;SDS011;21084;51.098;14.506;2022-08-01T08:58:52;1.50;;;1.40;;
34872;SDS011;21084;51.098;14.506;2022-08-01T09:00:55;1.85;;;1.55;;
34872;SDS011;21084;51.098;14.506;2022-08-01T09:02:58;1.80;;;1.40;;
34872;SDS011;21084;51.098;14.506;2022-08-01T09:05:01;1.80;;;1.58;;
34872;SDS011;21084;51.098;14.506;2022-08-01T09:07:05;2.95;;;1.40;;
34872;SDS011;21084;51.098;14.506;2022-08-01T09:09:09;1.45;;;1.27;;
34872;SDS011;21084;51.098;14.506;2022-08-01T09:11:12;1.60;;;1.50;;
34872;SDS011;21084;51.098;14.506;2022-08-01T09:13:24;1.73;;;1.58;;
34872;SDS011;21084;51.098;14.506;2022-08-01T09:15:39;2.97;;;1.63;;
34872;SDS011;21084;51.098;14.506;2022-08-01T09:17:43;2.53;;;1.50;;
34872;SDS011;21084;51.098;14.506;2022-08-01T09:19:47;1.92;;;1.30;;
34872;SDS011;21084;51.098;14.506;2022-08-01T09:21:56;4.13;;;1.50;;
34872;SDS011;21084;51.098;14.506;2022-08-01T09:24:00;3.85;;;1.67;;
34872;SDS011;21084;51.098;14.506;2022-08-01T09:26:03;3.60;;;1.75;;
34872;SDS011;21084;51.098;14.506;2022-08-01T09:28:06;2.45;;;1.88;;
34872;SDS011;21084;51.098;14.506;2022-08-01T09:30:10;2.00;;;1.80;;
34872;SDS011;21084;51.098;14.506;2022-08-01T09:32:16;2.45;;;1.83;;
34872;SDS011;21084;51.098;14.506;2022-08-01T09:34:23;2.38;;;1.92;;
34872;SDS011;21084;51.098;14.506;2022-08-01T09:36:42;1.90;;;1.80;;
34872;SDS011;21084;51.098;14.506;2022-08-01T09:38:46;2.17;;;1.80;;
34872;SDS011;21084;51.098;14.506;2022-08-01T09:40:53;4.03;;;2.10;;
34872;SDS011;21084;51.098;14.506;2022-08-01T09:43:09;2.20;;;2.00;;
34872;SDS011;21084;51.098;14.506;2022-08-01T09:45:31;3.58;;;1.77;;
34872;SDS011;21084;51.098;14.506;2022-08-01T09:47:45;2.28;;;2.08;;
34872;SDS011;21084;51.098;14.506;2022-08-01T09:49:52;2.53;;;2.08;;
34872;SDS011;21084;51.098;14.506;2022-08-01T09:54:02;2.30;;;2.10;;
34872;SDS011;21084;51.098;14.506;2022-08-01T09:56:09;2.58;;;2.38;;
34872;SDS011;21084;51.098;14.506;2022-08-01T09:58:13;2.42;;;2.10;;
34872;SDS011;21084;51.098;14.506;2022-08-01T10:00:16;4.07;;;2.10;;
34872;SDS011;21084;51.098;14.506;2022-08-01T10:02:39;1.77;;;1.60;;
34872;SDS011;21084;51.098;14.506;2022-08-01T10:04:48;2.20;;;1.70;;
34872;SDS011;21084;51.098;14.506;2022-08-01T10:06:51;1.93;;;1.83;;
34872;SDS011;21084;51.098;14.506;2022-08-01T10:09:06;3.28;;;2.10;;
34872;SDS011;21084;51.098;14.506;2022-08-01T10:11:10;4.28;;;1.70;;
34872;SDS011;21084;51.098;14.506;2022-08-01T10:13:17;2.85;;;1.80;;
34872;SDS011;21084;51.098;14.506;2022-08-01T10:15:22;3.67;;;1.60;;
34872;SDS011;21084;51.098;14.506;2022-08-01T10:17:39;4.05;;;1.40;;
34872;SDS011;21084;51.098;14.506;2022-08-01T10:19:55;1.88;;;1.40;;
34872;SDS011;21084;51.098;14.506;2022-08-01T10:22:05;2.17;;;1.33;;
34872;SDS011;21084;51.098;14.506;2022-08-01T10:24:11;1.73;;;1.60;;
34872;SDS011;21084;51.098;14.506;2022-08-01T10:26:15;1.67;;;1.30;;
34872;SDS011;21084;51.098;14.506;2022-08-01T10:28:19;2.85;;;1.20;;
34872;SDS011;21084;51.098;14.506;2022-08-01T10:30:25;3.63;;;1.50;;
34872;SDS011;21084;51.098;14.506;2022-08-01T10:32:32;1.60;;;0.90;;
34872;SDS011;21084;51.098;14.506;2022-08-01T10:34:37;1.75;;;1.23;;
34872;SDS011;21084;51.098;14.506;2022-08-01T10:36:48;1.10;;;1.00;;
34872;SDS011;21084;51.098;14.506;2022-08-01T10:38:52;2.47;;;0.98;;
34872;SDS011;21084;51.098;14.506;2022-08-01T10:40:56;1.20;;;1.10;;
34872;SDS011;21084;51.098;14.506;2022-08-01T10:43:00;1.88;;;0.95;;
34872;SDS011;21084;51.098;14.506;2022-08-01T10:45:04;2.28;;;0.98;;
34872;SDS011;21084;51.098;14.506;2022-08-01T10:47:10;1.48;;;0.95;;
34872;SDS011;21084;51.098;14.506;2022-08-01T10:49:16;1.58;;;1.10;;
34872;SDS011;21084;51.098;14.506;2022-08-01T10:51:21;0.90;;;0.90;;
34872;SDS011;21084;51.098;14.506;2022-08-01T10:53:50;1.85;;;1.10;;
34872;SDS011;21084;51.098;14.506;2022-08-01T10:55:57;1.40;;;1.30;;
34872;SDS011;21084;51.098;14.506;2022-08-01T10:58:04;2.38;;;1.50;;
34872;SDS011;21084;51.098;14.506;2022-08-01T11:00:17;1.20;;;1.10;;
34872;SDS011;21084;51.098;14.506;2022-08-01T11:02:30;2.35;;;1.15;;
34872;SDS011;21084;51.098;14.506;2022-08-01T11:04:40;5.75;;;1.27;;
34872;SDS011;21084;51.098;14.506;2022-08-01T11:06:48;4.00;;;1.50;;
34872;SDS011;21084;51.098;14.506;2022-08-01T11:08:55;2.13;;;1.63;;
34872;SDS011;21084;51.098;14.506;2022-08-01T11:11:02;1.75;;;1.50;;
34872;SDS011;21084;51.098;14.506;2022-08-01T11:13:07;2.70;;;1.20;;
34872;SDS011;21084;51.098;14.506;2022-08-01T11:15:23;1.40;;;1.30;;
34872;SDS011;21084;51.098;14.506;2022-08-01T11:17:32;1.30;;;1.20;;
34872;SDS011;21084;51.098;14.506;2022-08-01T11:21:58;1.45;;;1.35;;
34872;SDS011;21084;51.098;14.506;2022-08-01T11:24:05;1.58;;;1.48;;
34872;SDS011;21084;51.098;14.506;2022-08-01T11:26:15;3.05;;;1.70;;
34872;SDS011;21084;51.098;14.506;2022-08-01T11:28:19;1.50;;;1.30;;
34872;SDS011;21084;51.098;14.506;2022-08-01T11:30:36;1.63;;;1.35;;
34872;SDS011;21084;51.098;14.506;2022-08-01T11:32:45;1.52;;;1.42;;
34872;SDS011;21084;51.098;14.506;2022-08-01T11:35:08;1.90;;;1.73;;
34872;SDS011;21084;51.098;14.506;2022-08-01T11:37:24;7.88;;;1.50;;
34872;SDS011;21084;51.098;14.506;2022-08-01T11:39:35;2.58;;;1.80;;
34872;SDS011;21084;51.098;14.506;2022-08-01T11:41:40;1.90;;;1.63;;
34872;SDS011;21084;51.098;14.506;2022-08-01T11:43:56;10.32;;;1.75;;
34872;SDS011;21084;51.098;14.506;2022-08-01T11:46:00;2.17;;;1.60;;
34872;SDS011;21084;51.098;14.506;2022-08-01T11:48:04;4.40;;;1.80;;
34872;SDS011;21084;51.098;14.506;2022-08-01T11:50:30;2.85;;;1.70;;
34872;SDS011;21084;51.098;14.506;2022-08-01T11:52:33;2.20;;;1.70;;
34872;SDS011;21084;51.098;14.506;2022-08-01T11:54:40;1.90;;;1.60;;
34872;SDS011;21084;51.098;14.506;2022-08-01T11:56:44;1.90;;;1.80;;
34872;SDS011;21084;51.098;14.506;2022-08-01T11:58:49;2.65;;;2.00;;
34872;SDS011;21084;51.098;14.506;2022-08-01T12:01:01;3.20;;;1.88;;
34872;SDS011;21084;51.098;14.506;2022-08-01T12:03:05;2.03;;;1.70;;
34872;SDS011;21084;51.098;14.506;2022-08-01T12:05:09;2.58;;;2.00;;
34872;SDS011;21084;51.098;14.506;2022-08-01T12:07:15;2.22;;;2.03;;
34872;SDS011;21084;51.098;14.506;2022-08-01T12:09:21;2.75;;;1.65;;
34872;SDS011;21084;51.098;14.506;2022-08-01T12:11:27;2.25;;;1.88;;
34872;SDS011;21084;51.098;14.506;2022-08-01T12:13:41;2.55;;;2.33;;
34872;SDS011;21084;51.098;14.506;2022-08-01T12:15:45;2.55;;;2.35;;
34872;SDS011;21084;51.098;14.506;2022-08-01T12:17:55;2.85;;;2.40;;
34872;SDS011;21084;51.098;14.506;2022-08-01T12:20:01;2.28;;;2.10;;
34872;SDS011;21084;51.098;14.506;2022-08-01T12:22:06;4.95;;;2.30;;
34872;SDS011;21084;51.098;14.506;2022-08-01T12:24:09;4.00;;;2.40;;
34872;SDS011;21084;51.098;14.506;2022-08-01T12:26:12;4.18;;;2.20;;
34872;SDS011;21084;51.098;14.506;2022-08-01T12:28:41;4.22;;;2.25;;